Location Norrisville, MD, US

ob CW6888 200340Z AUTO 00000KT 27/24 A2987 RMK SLPNO 

2019.07.20 0340 UTC
Wind from the N (0 degrees) at Calm MPH ( KT) gusting to 0 MPH (0 KT)
Visibility    Mile(s)
Temperature 80.4 F (27 C)
Dew Point 75.8 F (24 C)
Relative Humidity 86%
Pressure   29.874 in. Hg (1012 hPa)
Rain  0.00 in.
Daily Rain 0.00 in.

Station Name  Sola Virtus Observatory
Longitude, Latitude  -76.5447, 39.7025
Elevation 738
Station URL http://sola-virtus-observatory.org
Software Type Cumulus v1.9.4